Terminal Aerodrome Forecast
Issued by NWS

Home | Current Version | Previous Version | Text Only | Print | Product List | Glossary Off
Versions: 1 2 3 4 5 6 7 8 9 10 11 12 13 14 15 16

296
FTUS43 KGRB 171731
TAFCWA
TAF
KCWA 171731Z 1718/1818 29009G15KT P6SM SKC
     FM172300 28007KT P6SM SKC
     FM180000 01004KT P6SM SCT250
     FM181700 12006KT P6SM BKN250=

USA.gov is the U.S. government's official web portal to all federal, state and local government web resources and services.